createdAt,value
2019-04-10T00:02:39.840Z,52.50
2019-04-10T00:05:07.659Z,52.60
2019-04-10T00:07:35.207Z,52.00
2019-04-10T00:10:05.575Z,52.60
2019-04-10T00:12:33.807Z,52.60
2019-04-10T00:15:01.352Z,52.70
2019-04-10T00:17:29.165Z,52.90
2019-04-10T00:19:56.907Z,52.90
2019-04-10T00:22:24.379Z,52.90
2019-04-10T00:24:52.463Z,53.00
2019-04-10T00:27:20.716Z,52.90
2019-04-10T00:29:48.768Z,53.00
2019-04-10T00:32:16.250Z,53.10
2019-04-10T00:34:43.780Z,53.20
2019-04-10T00:37:21.870Z,53.20
2019-04-10T00:39:42.364Z,53.30
2019-04-10T00:42:10.497Z,53.20
2019-04-10T00:44:38.066Z,53.30
2019-04-10T00:47:06.522Z,53.30
2019-04-10T00:49:34.280Z,53.40
2019-04-10T00:52:01.811Z,53.40
2019-04-10T00:54:29.261Z,53.40
2019-04-10T00:56:56.977Z,53.50
2019-04-10T00:59:24.726Z,53.40
2019-04-10T01:01:52.163Z,53.40
2019-04-10T01:04:20.359Z,53.40
2019-04-10T01:06:48.418Z,53.30
2019-04-10T01:09:15.899Z,53.50
2019-04-10T01:11:43.434Z,53.50
2019-04-10T01:14:11.646Z,53.40
2019-04-10T01:16:39.746Z,53.40
2019-04-10T01:19:07.911Z,53.40
2019-04-10T01:21:36.741Z,53.50
2019-04-10T01:24:04.281Z,53.50
2019-04-10T01:26:31.735Z,53.30
2019-04-10T01:28:59.215Z,53.40
2019-04-10T01:31:26.868Z,53.40
2019-04-10T01:33:54.820Z,53.40
2019-04-10T01:36:22.768Z,53.40
2019-04-10T01:38:51.441Z,53.20
2019-04-10T01:41:19.452Z,53.20
2019-04-10T01:43:47.036Z,53.20
2019-04-10T01:46:14.523Z,53.30
2019-04-10T01:48:42.076Z,53.40
2019-04-10T01:51:09.566Z,53.50
2019-04-10T01:53:37.680Z,53.50
2019-04-10T01:56:05.330Z,53.50
2019-04-10T01:58:32.931Z,53.60
2019-04-10T02:01:17.051Z,53.60
2019-04-10T02:03:44.513Z,53.60
2019-04-10T02:06:11.877Z,53.60
2019-04-10T02:08:40.302Z,53.70
2019-04-10T02:11:08.872Z,53.70
2019-04-10T02:13:36.470Z,53.80
2019-04-10T02:16:03.862Z,53.90
2019-04-10T02:18:31.300Z,53.90
2019-04-10T02:20:59.099Z,53.90
2019-04-10T02:23:26.829Z,53.90
2019-04-10T02:25:54.851Z,54.60
2019-04-10T02:28:22.775Z,54.00
2019-04-10T02:30:50.315Z,54.10
2019-04-10T02:33:17.941Z,54.20
2019-04-10T02:35:45.627Z,54.10
2019-04-10T02:38:32.767Z,54.20
2019-04-10T02:40:43.367Z,54.20
2019-04-10T02:43:12.557Z,54.20
2019-04-10T02:45:41.954Z,54.30
2019-04-10T02:48:10.088Z,54.30
2019-04-10T02:50:38.931Z,54.40
2019-04-10T02:53:07.793Z,54.40
2019-04-10T02:55:35.841Z,54.30
2019-04-10T02:58:03.409Z,54.30
2019-04-10T03:00:30.849Z,54.20
2019-04-10T03:02:59.278Z,54.30
2019-04-10T03:05:27.920Z,54.20
2019-04-10T03:07:55.921Z,54.30
2019-04-10T03:10:29.858Z,54.30
2019-04-10T03:12:53.119Z,54.30
2019-04-10T03:15:23.094Z,54.30
2019-04-10T03:17:50.730Z,54.40
2019-04-10T03:20:18.440Z,54.50
2019-04-10T03:22:45.867Z,54.40
2019-04-10T03:25:13.294Z,54.40
2019-04-10T03:27:40.843Z,54.40
2019-04-10T03:30:12.123Z,54.60
2019-04-10T03:33:04.646Z,54.50
2019-04-10T03:35:36.852Z,54.50
2019-04-10T03:38:05.662Z,54.50
2019-04-10T03:40:33.440Z,54.60
2019-04-10T03:43:03.516Z,54.40
2019-04-10T03:45:31.063Z,54.40
2019-04-10T03:47:58.505Z,52.90
2019-04-10T03:50:25.991Z,53.90
2019-04-10T03:52:53.760Z,54.20
2019-04-10T03:55:21.425Z,54.20
2019-04-10T03:57:49.160Z,54.30
2019-04-10T04:00:16.595Z,54.30
2019-04-10T04:02:44.205Z,54.30
2019-04-10T04:05:13.435Z,54.30
2019-04-10T04:07:41.083Z,54.40
2019-04-10T04:10:09.462Z,54.50
2019-04-10T04:12:37.371Z,54.60
2019-04-10T04:15:05.348Z,54.60
2019-04-10T04:17:32.937Z,54.60
2019-04-10T04:20:00.523Z,54.60
2019-04-10T04:22:28.513Z,54.60
2019-04-10T04:24:56.552Z,54.70
2019-04-10T04:27:25.042Z,54.70
2019-04-10T04:29:52.693Z,54.60
2019-04-10T04:32:20.509Z,54.70
2019-04-10T04:37:35.792Z,54.20
2019-04-10T04:40:03.961Z,54.60
2019-04-10T04:42:33.009Z,54.60
2019-04-10T04:45:00.835Z,54.60
2019-04-10T04:47:28.758Z,55.70
2019-04-10T04:49:56.537Z,54.50
2019-04-10T04:52:24.112Z,54.50
2019-04-10T04:54:51.613Z,54.40
2019-04-10T04:57:20.378Z,54.40
2019-04-10T04:59:48.733Z,54.50
2019-04-10T05:02:57.741Z,54.70
2019-04-10T05:05:29.288Z,53.10
2019-04-10T05:08:01.159Z,55.40
2019-04-10T05:10:26.541Z,54.60
2019-04-10T05:12:54.125Z,54.70
2019-04-10T05:15:21.636Z,54.60
2019-04-10T05:17:49.365Z,54.80
2019-04-10T05:20:17.032Z,54.70
2019-04-10T05:22:45.501Z,54.80
2019-04-10T05:25:13.517Z,54.90
2019-04-10T05:27:41.356Z,54.80
2019-04-10T05:30:10.551Z,54.80
2019-04-10T05:32:38.192Z,54.00
2019-04-10T05:35:08.406Z,55.00
2019-04-10T05:37:35.902Z,55.00
2019-04-10T05:40:05.516Z,55.10
2019-04-10T05:42:35.197Z,54.60
2019-04-10T05:45:03.271Z,55.30
2019-04-10T05:47:30.689Z,54.40
2019-04-10T05:49:58.223Z,54.10
2019-04-10T05:52:26.676Z,54.00
2019-04-10T05:54:55.649Z,54.00
2019-04-10T05:57:23.323Z,53.90
2019-04-10T05:59:50.877Z,53.50
2019-04-10T06:02:18.437Z,53.40
2019-04-10T06:04:45.958Z,53.40
2019-04-10T06:07:13.484Z,52.80
2019-04-10T06:09:51.980Z,53.30
2019-04-10T06:12:10.451Z,53.20
2019-04-10T06:14:38.082Z,53.10
2019-04-10T06:17:05.963Z,53.10
2019-04-10T06:19:34.405Z,53.20
2019-04-10T06:22:02.878Z,53.00
2019-04-10T06:24:30.622Z,52.90
2019-04-10T06:26:58.110Z,52.90
2019-04-10T06:29:26.766Z,52.80
2019-04-10T06:31:54.833Z,52.60
2019-04-10T06:34:22.653Z,53.10
2019-04-10T06:36:51.491Z,52.70
2019-04-10T06:39:19.092Z,52.70
2019-04-10T06:41:46.808Z,52.70
2019-04-10T06:44:14.408Z,52.60
2019-04-10T06:46:41.895Z,52.70
2019-04-10T06:49:09.389Z,52.60
2019-04-10T06:51:37.555Z,52.60
2019-04-10T06:57:04.846Z,52.90
2019-04-10T06:59:46.092Z,52.70
2019-04-10T07:02:30.989Z,52.60
2019-04-10T07:05:08.607Z,53.30
2019-04-10T07:08:16.525Z,53.60
2019-04-10T07:11:07.810Z,51.50
2019-04-10T07:13:38.779Z,51.30
2019-04-10T07:16:26.590Z,52.80
2019-04-10T07:18:54.865Z,52.30
2019-04-10T07:21:24.562Z,51.90
2019-04-10T07:24:16.692Z,53.20
2019-04-10T07:27:03.260Z,52.40
2019-04-10T07:29:50.795Z,52.60
2019-04-10T07:32:45.753Z,52.10
2019-04-10T07:35:38.364Z,52.10
2019-04-10T07:44:22.648Z,51.50
2019-04-10T07:50:30.174Z,52.30
2019-04-10T07:53:01.952Z,51.60
2019-04-10T07:55:29.536Z,52.10
2019-04-10T07:57:57.275Z,51.60
2019-04-10T08:00:25.347Z,51.10
2019-04-10T08:03:14.648Z,50.90
2019-04-10T08:05:42.265Z,50.60
2019-04-10T08:08:10.603Z,50.70
2019-04-10T08:10:38.138Z,50.50
2019-04-10T08:13:06.504Z,50.40
2019-04-10T08:15:34.106Z,50.30
2019-04-10T08:18:02.573Z,50.30
2019-04-10T08:20:30.668Z,50.20
2019-04-10T08:22:59.441Z,50.10
2019-04-10T08:25:27.397Z,49.30
2019-04-10T08:27:56.330Z,49.80
2019-04-10T08:30:24.019Z,48.50
2019-04-10T08:33:00.183Z,49.70
2019-04-10T08:35:21.000Z,49.80
2019-04-10T08:37:48.981Z,49.50
2019-04-10T08:40:38.260Z,49.50
2019-04-10T08:43:06.237Z,49.80
2019-04-10T08:45:44.177Z,49.90
2019-04-10T08:48:03.627Z,49.80
2019-04-10T08:50:34.457Z,50.10
2019-04-10T08:53:02.221Z,50.10
2019-04-10T08:55:30.346Z,50.30
2019-04-10T08:57:58.605Z,50.50
2019-04-10T09:00:26.872Z,50.50
2019-04-10T09:02:54.761Z,50.60
2019-04-10T09:05:22.258Z,51.00
2019-04-10T09:07:50.589Z,51.20
2019-04-10T09:10:18.554Z,51.10
2019-04-10T09:12:47.239Z,51.20
2019-04-10T09:15:15.944Z,51.30
2019-04-10T09:17:43.860Z,51.00
2019-04-10T09:20:11.497Z,51.00
2019-04-10T09:23:11.433Z,51.20
2019-04-10T09:25:16.072Z,51.20
2019-04-10T09:27:44.213Z,51.40
2019-04-10T09:30:12.871Z,51.30
2019-04-10T09:32:40.515Z,51.30
2019-04-10T09:35:08.763Z,51.50
2019-04-10T09:37:36.443Z,51.50
2019-04-10T09:40:05.635Z,51.20
2019-04-10T09:42:53.984Z,51.20
2019-04-10T09:45:22.268Z,51.00
2019-04-10T09:47:50.804Z,50.80
2019-04-10T09:50:19.238Z,51.00
2019-04-10T09:52:46.936Z,50.80
2019-04-10T09:55:14.480Z,50.90
2019-04-10T09:57:43.004Z,51.90
2019-04-10T10:00:11.928Z,51.20
2019-04-10T10:02:43.308Z,51.20
2019-04-10T10:05:10.913Z,51.40
2019-04-10T10:07:39.096Z,51.30
2019-04-10T10:10:08.708Z,51.40
2019-04-10T10:12:36.558Z,51.40
2019-04-10T10:15:05.555Z,51.50
2019-04-10T10:17:33.060Z,51.60
2019-04-10T10:20:01.944Z,51.60
2019-04-10T10:22:30.642Z,51.60
2019-04-10T10:24:59.352Z,51.50
2019-04-10T10:27:26.959Z,51.70
2019-04-10T10:29:55.976Z,51.70
2019-04-10T10:32:24.632Z,51.70
2019-04-10T10:34:52.518Z,51.60
2019-04-10T10:37:20.261Z,51.50
2019-04-10T10:39:47.806Z,51.50
2019-04-10T10:42:15.779Z,51.50
2019-04-10T10:44:43.302Z,51.50
2019-04-10T10:47:11.687Z,51.50
2019-04-10T10:49:40.238Z,51.40
2019-04-10T10:52:08.954Z,51.40
2019-04-10T10:54:36.983Z,51.50
2019-04-10T10:57:04.805Z,50.40
2019-04-10T10:59:33.432Z,51.90
2019-04-10T11:02:02.291Z,51.50
2019-04-10T11:04:30.059Z,51.50
2019-04-10T11:07:00.486Z,51.50
2019-04-10T11:09:28.426Z,51.50
2019-04-10T11:11:56.023Z,51.20
2019-04-10T11:14:27.767Z,51.40
2019-04-10T11:16:56.256Z,51.40
2019-04-10T11:19:24.613Z,51.20
2019-04-10T11:21:56.756Z,51.10
2019-04-10T11:24:27.020Z,51.00
2019-04-10T11:26:55.266Z,52.30
2019-04-10T11:29:23.834Z,51.20
2019-04-10T11:31:55.609Z,52.30
2019-04-10T11:34:24.315Z,51.10
2019-04-10T11:37:18.111Z,51.50
2019-04-10T11:39:43.249Z,50.10
2019-04-10T11:42:10.400Z,52.20
2019-04-10T11:44:41.715Z,51.40
2019-04-10T11:47:10.102Z,51.60
2019-04-10T11:49:42.589Z,51.40
2019-04-10T11:52:07.711Z,51.10
2019-04-10T11:54:41.097Z,51.40
2019-04-10T11:57:09.980Z,51.30
2019-04-10T12:11:21.691Z,52.10
2019-04-10T12:13:50.664Z,51.10
2019-04-10T12:16:18.218Z,51.20
2019-04-10T12:18:46.728Z,51.10
2019-04-10T12:21:14.319Z,51.10
2019-04-10T12:23:42.962Z,51.10
2019-04-10T12:26:11.645Z,50.90
2019-04-10T12:28:40.279Z,50.90
2019-04-10T12:31:08.063Z,50.80
2019-04-10T12:33:35.922Z,50.80
2019-04-10T12:36:06.513Z,50.70
2019-04-10T12:38:34.637Z,50.50
2019-04-10T12:41:03.379Z,51.60
2019-04-10T12:43:31.165Z,50.30
2019-04-10T12:45:58.702Z,50.30
2019-04-10T12:48:26.342Z,50.20
2019-04-10T12:50:55.078Z,50.20
2019-04-10T12:53:23.329Z,50.30
2019-04-10T12:55:51.400Z,50.30
2019-04-10T12:58:19.596Z,50.20
2019-04-10T13:00:48.288Z,50.30
2019-04-10T13:03:16.741Z,50.20
2019-04-10T13:05:45.254Z,50.00
2019-04-10T13:08:21.150Z,50.00
2019-04-10T13:10:43.574Z,49.80
2019-04-10T13:13:11.568Z,49.70
2019-04-10T13:15:39.326Z,49.90
2019-04-10T13:18:07.976Z,49.90
2019-04-10T13:20:35.748Z,49.90
2019-04-10T13:23:03.165Z,49.70
2019-04-10T13:25:30.735Z,49.60
2019-04-10T13:27:59.041Z,49.20
2019-04-10T13:30:27.031Z,48.90
2019-04-10T13:32:54.746Z,48.80
2019-04-10T13:35:22.307Z,48.50
2019-04-10T13:37:50.604Z,48.00
2019-04-10T13:40:19.436Z,48.20
2019-04-10T13:42:47.438Z,47.90
2019-04-10T13:45:17.457Z,47.80
2019-04-10T13:47:44.997Z,47.70
2019-04-10T13:50:12.812Z,47.50
2019-04-10T13:52:42.664Z,48.00
2019-04-10T13:55:11.587Z,47.50
2019-04-10T13:57:39.415Z,47.40
2019-04-10T14:00:09.333Z,47.40
2019-04-10T14:02:39.537Z,47.40
2019-04-10T14:05:08.552Z,47.50
2019-04-10T14:07:36.128Z,47.40
2019-04-10T14:10:04.886Z,47.50
2019-04-10T14:12:33.340Z,47.60
2019-04-10T14:15:01.580Z,47.60
2019-04-10T14:17:29.910Z,47.40
2019-04-10T14:19:58.856Z,47.60
2019-04-10T14:22:26.827Z,47.60
2019-04-10T14:24:55.424Z,47.60
2019-04-10T14:27:24.852Z,47.50
2019-04-10T14:29:52.421Z,47.70
2019-04-10T14:32:26.859Z,47.70
2019-04-10T14:34:54.581Z,47.70
2019-04-10T14:37:22.490Z,47.70
2019-04-10T14:39:50.139Z,47.80
2019-04-10T14:42:18.261Z,47.70
2019-04-10T14:44:46.984Z,47.70
2019-04-10T14:47:14.974Z,47.90
2019-04-10T14:49:43.084Z,47.80
2019-04-10T14:52:10.856Z,47.80
2019-04-10T14:54:38.351Z,48.60
2019-04-10T14:57:06.516Z,47.90
2019-04-10T14:59:35.866Z,47.80
2019-04-10T15:02:06.374Z,47.80
2019-04-10T15:04:35.194Z,48.00
2019-04-10T15:07:03.851Z,47.90
2019-04-10T15:09:37.980Z,47.80
2019-04-10T15:12:06.960Z,47.80
2019-04-10T15:14:35.427Z,47.40
2019-04-10T15:17:04.844Z,48.50
2019-04-10T15:19:32.422Z,48.00
2019-04-10T15:22:01.212Z,47.90
2019-04-10T15:24:28.897Z,48.10
2019-04-10T15:26:57.185Z,48.10
2019-04-10T15:29:24.823Z,48.60
2019-04-10T15:31:52.354Z,48.30
2019-04-10T15:34:20.509Z,48.40
2019-04-10T15:36:52.761Z,48.40
2019-04-10T15:39:30.632Z,48.40
2019-04-10T15:41:50.121Z,48.40
2019-04-10T15:44:18.301Z,48.40
2019-04-10T15:46:45.780Z,48.30
2019-04-10T15:49:13.393Z,48.40
2019-04-10T15:51:41.361Z,48.50
2019-04-10T15:54:09.737Z,48.50
2019-04-10T15:56:38.112Z,48.50
2019-04-10T15:59:06.044Z,48.60
2019-04-10T16:01:33.688Z,48.60
2019-04-10T16:04:01.363Z,48.80
2019-04-10T16:06:31.479Z,48.70
2019-04-10T16:08:59.418Z,48.60
2019-04-10T16:11:56.375Z,48.80
2019-04-10T16:14:28.420Z,48.80
2019-04-10T16:17:11.187Z,48.80
2019-04-10T16:19:57.222Z,49.00
2019-04-10T16:22:29.477Z,49.10
2019-04-10T16:25:01.146Z,49.20
2019-04-10T16:27:28.752Z,49.10
2019-04-10T16:29:56.642Z,49.00
2019-04-10T16:32:24.995Z,49.10
2019-04-10T16:34:52.635Z,49.10
2019-04-10T16:37:20.271Z,49.30
2019-04-10T16:39:57.896Z,49.40
2019-04-10T16:42:17.452Z,49.40
2019-04-10T16:44:45.620Z,49.60
2019-04-10T16:47:14.168Z,49.60
2019-04-10T16:49:41.839Z,49.80
2019-04-10T16:52:09.403Z,50.00
2019-04-10T16:54:37.470Z,50.30
2019-04-10T16:57:05.249Z,50.20
2019-04-10T16:59:33.830Z,50.50
2019-04-10T17:02:01.928Z,50.50
2019-04-10T17:04:29.853Z,50.70
2019-04-10T17:06:58.747Z,50.70
2019-04-10T17:09:27.001Z,51.00
2019-04-10T17:11:56.355Z,51.00
2019-04-10T17:14:24.161Z,51.40
2019-04-10T17:16:51.640Z,51.60
2019-04-10T17:19:19.441Z,52.00
2019-04-10T17:21:47.143Z,52.00
2019-04-10T17:24:15.352Z,53.00
2019-04-10T17:26:43.453Z,52.20
2019-04-10T17:29:12.304Z,52.40
2019-04-10T17:31:40.419Z,52.50
2019-04-10T17:34:08.310Z,52.40
2019-04-10T17:36:36.872Z,52.60
2019-04-10T17:39:09.109Z,51.80
2019-04-10T17:41:36.669Z,53.00
2019-04-10T17:44:05.449Z,53.00
2019-04-10T17:46:33.474Z,53.20
2019-04-10T17:49:01.395Z,53.30
2019-04-10T17:51:30.208Z,53.30
2019-04-10T17:53:58.010Z,53.50
2019-04-10T17:56:26.308Z,53.60
2019-04-10T17:58:54.083Z,53.60
2019-04-10T18:01:22.985Z,53.90
2019-04-10T18:03:55.211Z,54.00
2019-04-10T18:06:21.371Z,53.80
2019-04-10T18:08:49.399Z,54.10
2019-04-10T18:11:18.065Z,54.00
2019-04-10T18:13:46.829Z,54.00
2019-04-10T18:16:36.161Z,54.20
2019-04-10T18:19:04.551Z,54.30
2019-04-10T18:21:32.964Z,54.40
2019-04-10T18:24:02.083Z,54.50
2019-04-10T18:26:29.948Z,54.50
2019-04-10T18:29:03.011Z,55.20
2019-04-10T18:31:32.625Z,52.80
2019-04-10T18:34:08.125Z,52.40
2019-04-10T18:36:36.259Z,54.20
2019-04-10T18:39:11.376Z,54.00
2019-04-10T18:46:49.985Z,53.70
2019-04-10T18:49:19.014Z,54.20
2019-04-10T18:51:47.907Z,54.40
2019-04-10T18:54:16.587Z,52.60
2019-04-10T18:57:00.043Z,53.30
2019-04-10T18:59:34.561Z,53.70
2019-04-10T19:02:41.192Z,53.40
2019-04-10T19:05:19.386Z,53.70
2019-04-10T19:07:48.201Z,53.60
2019-04-10T19:10:17.831Z,53.50
2019-04-10T19:12:46.953Z,53.90
2019-04-10T19:15:14.786Z,54.60
2019-04-10T19:17:43.590Z,54.10
2019-04-10T19:20:11.709Z,53.40
2019-04-10T19:22:40.132Z,54.20
2019-04-10T19:25:08.568Z,54.30
2019-04-10T19:27:36.123Z,53.80
2019-04-10T19:30:06.773Z,54.00
2019-04-10T19:32:35.949Z,54.00
2019-04-10T19:35:07.794Z,54.00
2019-04-10T19:37:55.239Z,54.20
2019-04-10T19:40:23.563Z,54.20
2019-04-10T19:42:51.456Z,54.20
2019-04-10T19:45:19.532Z,54.20
2019-04-10T19:47:47.336Z,54.30
2019-04-10T19:50:15.171Z,54.30
2019-04-10T19:52:42.989Z,54.30
2019-04-10T19:55:11.503Z,54.20
2019-04-10T20:01:06.343Z,54.30
2019-04-10T20:03:33.907Z,55.00
2019-04-10T20:06:01.473Z,54.30
2019-04-10T20:08:29.037Z,54.30
2019-04-10T20:10:56.642Z,54.30
2019-04-10T20:13:24.877Z,54.20
2019-04-10T20:15:55.178Z,54.50
2019-04-10T20:18:22.839Z,54.40
2019-04-10T20:20:51.355Z,54.30
2019-04-10T20:23:19.474Z,54.10
2019-04-10T20:25:50.506Z,54.40
2019-04-10T20:28:18.051Z,54.20
2019-04-10T20:30:45.649Z,54.20
2019-04-10T20:33:13.128Z,54.20
2019-04-10T20:35:42.764Z,54.50
2019-04-10T20:38:11.428Z,54.40
2019-04-10T20:40:40.106Z,54.30
2019-04-10T20:43:08.902Z,54.90
2019-04-10T20:45:37.931Z,54.60
2019-04-10T20:48:06.656Z,54.60
2019-04-10T20:50:36.278Z,55.50
2019-04-10T20:53:04.601Z,54.80
2019-04-10T20:55:33.270Z,55.20
2019-04-10T20:58:02.604Z,54.60
2019-04-10T21:00:38.793Z,54.70
2019-04-10T21:03:09.871Z,56.00
2019-04-10T21:05:42.346Z,55.40
2019-04-10T21:08:32.396Z,54.20
2019-04-10T21:11:00.101Z,54.60
2019-04-10T21:13:27.878Z,56.20
2019-04-10T21:19:25.207Z,54.50
2019-04-10T21:21:52.783Z,55.20
2019-04-10T21:24:20.985Z,54.70
2019-04-10T21:26:48.660Z,54.70
2019-04-10T21:29:36.384Z,55.80
2019-04-10T21:32:14.856Z,54.70
2019-04-10T21:34:44.769Z,54.70
2019-04-10T21:37:14.448Z,54.70
2019-04-10T21:39:41.893Z,54.80
2019-04-10T21:42:18.125Z,54.60
2019-04-10T21:44:38.731Z,54.60
2019-04-10T21:47:06.360Z,54.70
2019-04-10T21:49:33.920Z,54.70
2019-04-10T21:52:02.130Z,54.60
2019-04-10T21:54:29.840Z,54.60
2019-04-10T21:56:57.691Z,54.00
2019-04-10T21:59:25.219Z,54.10
2019-04-10T22:01:52.923Z,55.20
2019-04-10T22:04:21.159Z,54.50
2019-04-10T22:07:11.876Z,54.50
2019-04-10T22:09:59.378Z,54.60
2019-04-10T22:12:31.678Z,54.50
2019-04-10T22:14:58.127Z,54.40
2019-04-10T22:17:26.806Z,54.50
2019-04-10T22:19:55.013Z,54.80
2019-04-10T22:22:22.904Z,53.50
2019-04-10T22:24:50.604Z,54.50
2019-04-10T22:27:19.027Z,54.70
2019-04-10T22:29:47.082Z,55.20
2019-04-10T22:32:14.874Z,54.60
2019-04-10T22:34:42.641Z,54.60
2019-04-10T22:37:10.203Z,54.60
2019-04-10T22:39:38.141Z,54.60
2019-04-10T22:42:07.413Z,54.50
2019-04-10T22:44:40.900Z,54.40
2019-04-10T22:47:07.127Z,54.50
2019-04-10T22:49:35.004Z,54.40
2019-04-10T22:52:02.699Z,54.40
2019-04-10T22:54:30.728Z,54.40
2019-04-10T22:56:58.723Z,54.40
2019-04-10T22:59:28.490Z,54.60
2019-04-10T23:02:05.280Z,53.40
2019-04-10T23:04:28.616Z,54.50
2019-04-10T23:06:56.257Z,54.30
2019-04-10T23:09:24.390Z,54.30
2019-04-10T23:11:52.030Z,54.20
2019-04-10T23:14:20.661Z,54.20
2019-04-10T23:16:48.828Z,54.20
2019-04-10T23:19:16.478Z,54.20
2019-04-10T23:21:44.925Z,54.20
2019-04-10T23:24:13.605Z,54.20
2019-04-10T23:26:41.662Z,54.20
2019-04-10T23:29:09.887Z,55.50
2019-04-10T23:31:37.613Z,53.60
2019-04-10T23:34:06.261Z,54.30
2019-04-10T23:36:34.651Z,54.10
2019-04-10T23:39:03.835Z,56.10
2019-04-10T23:41:31.801Z,54.20
2019-04-10T23:43:59.909Z,53.60
2019-04-10T23:46:28.500Z,54.20
2019-04-10T23:48:57.203Z,54.90
2019-04-10T23:51:25.210Z,54.10
2019-04-10T23:53:53.055Z,54.10
2019-04-10T23:56:21.625Z,54.20
2019-04-10T23:58:50.642Z,54.10
